sensor_id;sensor_type;location;lat;lon;timestamp;P1;durP1;ratioP1;P2;durP2;ratioP2
21868;SDS011;11099;41.564;23.296;2022-07-29T00:01:06;7.78;;;7.18;;
21868;SDS011;11099;41.564;23.296;2022-07-29T00:03:32;8.18;;;7.38;;
21868;SDS011;11099;41.564;23.296;2022-07-29T00:05:58;7.50;;;6.70;;
21868;SDS011;11099;41.564;23.296;2022-07-29T00:08:24;6.72;;;6.13;;
21868;SDS011;11099;41.564;23.296;2022-07-29T00:10:50;6.82;;;6.20;;
21868;SDS011;11099;41.564;23.296;2022-07-29T00:13:16;7.03;;;6.50;;
21868;SDS011;11099;41.564;23.296;2022-07-29T00:15:44;7.38;;;6.78;;
21868;SDS011;11099;41.564;23.296;2022-07-29T00:18:10;7.68;;;6.82;;
21868;SDS011;11099;41.564;23.296;2022-07-29T00:20:40;9.30;;;7.72;;
21868;SDS011;11099;41.564;23.296;2022-07-29T00:23:08;7.60;;;6.90;;
21868;SDS011;11099;41.564;23.296;2022-07-29T00:25:34;8.75;;;7.72;;
21868;SDS011;11099;41.564;23.296;2022-07-29T00:28:02;7.78;;;6.90;;
21868;SDS011;11099;41.564;23.296;2022-07-29T00:30:30;8.25;;;7.45;;
21868;SDS011;11099;41.564;23.296;2022-07-29T00:32:56;8.10;;;7.50;;
21868;SDS011;11099;41.564;23.296;2022-07-29T00:35:22;8.25;;;7.55;;
21868;SDS011;11099;41.564;23.296;2022-07-29T00:38:06;8.13;;;7.43;;
21868;SDS011;11099;41.564;23.296;2022-07-29T00:40:32;7.95;;;7.35;;
21868;SDS011;11099;41.564;23.296;2022-07-29T00:42:58;8.88;;;7.63;;
21868;SDS011;11099;41.564;23.296;2022-07-29T00:45:24;8.75;;;7.82;;
21868;SDS011;11099;41.564;23.296;2022-07-29T00:47:51;8.57;;;7.88;;
21868;SDS011;11099;41.564;23.296;2022-07-29T00:50:17;8.85;;;8.05;;
21868;SDS011;11099;41.564;23.296;2022-07-29T00:52:43;9.55;;;8.13;;
21868;SDS011;11099;41.564;23.296;2022-07-29T00:55:11;8.05;;;7.35;;
21868;SDS011;11099;41.564;23.296;2022-07-29T00:57:38;8.55;;;7.75;;
21868;SDS011;11099;41.564;23.296;2022-07-29T01:00:07;8.20;;;7.50;;
21868;SDS011;11099;41.564;23.296;2022-07-29T01:02:39;8.80;;;8.00;;
21868;SDS011;11099;41.564;23.296;2022-07-29T01:05:05;8.73;;;7.70;;
21868;SDS011;11099;41.564;23.296;2022-07-29T01:07:36;8.68;;;7.95;;
21868;SDS011;11099;41.564;23.296;2022-07-29T01:10:06;8.50;;;7.80;;
21868;SDS011;11099;41.564;23.296;2022-07-29T01:12:35;8.27;;;7.00;;
21868;SDS011;11099;41.564;23.296;2022-07-29T01:15:03;7.80;;;7.10;;
21868;SDS011;11099;41.564;23.296;2022-07-29T01:17:42;11.65;;;7.75;;
21868;SDS011;11099;41.564;23.296;2022-07-29T01:23:59;7.88;;;7.28;;
21868;SDS011;11099;41.564;23.296;2022-07-29T01:29:42;8.32;;;7.45;;
21868;SDS011;11099;41.564;23.296;2022-07-29T01:32:14;9.68;;;7.35;;
21868;SDS011;11099;41.564;23.296;2022-07-29T01:35:03;8.13;;;7.43;;
21868;SDS011;11099;41.564;23.296;2022-07-29T01:40:00;8.23;;;7.57;;
21868;SDS011;11099;41.564;23.296;2022-07-29T01:42:32;7.97;;;7.18;;
21868;SDS011;11099;41.564;23.296;2022-07-29T01:45:03;8.50;;;7.70;;
21868;SDS011;11099;41.564;23.296;2022-07-29T01:47:44;8.18;;;7.07;;
21868;SDS011;11099;41.564;23.296;2022-07-29T01:50:14;7.93;;;7.22;;
21868;SDS011;11099;41.564;23.296;2022-07-29T01:52:49;8.48;;;7.32;;
21868;SDS011;11099;41.564;23.296;2022-07-29T01:55:22;8.73;;;7.22;;
21868;SDS011;11099;41.564;23.296;2022-07-29T01:57:53;8.50;;;7.78;;
21868;SDS011;11099;41.564;23.296;2022-07-29T02:00:21;8.18;;;7.47;;
21868;SDS011;11099;41.564;23.296;2022-07-29T02:02:49;7.97;;;7.38;;
21868;SDS011;11099;41.564;23.296;2022-07-29T02:05:18;9.20;;;7.97;;
21868;SDS011;11099;41.564;23.296;2022-07-29T02:07:46;8.25;;;7.60;;
21868;SDS011;11099;41.564;23.296;2022-07-29T02:10:13;9.93;;;8.02;;
21868;SDS011;11099;41.564;23.296;2022-07-29T02:12:42;9.40;;;7.82;;
21868;SDS011;11099;41.564;23.296;2022-07-29T02:15:10;8.75;;;8.00;;
21868;SDS011;11099;41.564;23.296;2022-07-29T02:17:44;9.00;;;8.20;;
21868;SDS011;11099;41.564;23.296;2022-07-29T02:20:16;8.68;;;7.55;;
21868;SDS011;11099;41.564;23.296;2022-07-29T02:22:42;8.38;;;7.72;;
21868;SDS011;11099;41.564;23.296;2022-07-29T02:25:14;8.35;;;7.35;;
21868;SDS011;11099;41.564;23.296;2022-07-29T02:27:43;8.70;;;7.90;;
21868;SDS011;11099;41.564;23.296;2022-07-29T02:30:10;7.72;;;7.03;;
21868;SDS011;11099;41.564;23.296;2022-07-29T02:32:40;8.55;;;7.75;;
21868;SDS011;11099;41.564;23.296;2022-07-29T02:35:08;8.63;;;7.88;;
21868;SDS011;11099;41.564;23.296;2022-07-29T02:37:38;8.32;;;7.55;;
21868;SDS011;11099;41.564;23.296;2022-07-29T02:40:08;8.23;;;7.53;;
21868;SDS011;11099;41.564;23.296;2022-07-29T02:42:38;8.40;;;7.57;;
21868;SDS011;11099;41.564;23.296;2022-07-29T02:45:07;8.32;;;7.50;;
21868;SDS011;11099;41.564;23.296;2022-07-29T02:47:36;8.20;;;7.50;;
21868;SDS011;11099;41.564;23.296;2022-07-29T02:50:50;7.45;;;6.85;;
21868;SDS011;11099;41.564;23.296;2022-07-29T02:58:29;8.32;;;7.50;;
21868;SDS011;11099;41.564;23.296;2022-07-29T03:01:20;7.93;;;7.28;;
21868;SDS011;11099;41.564;23.296;2022-07-29T03:06:17;9.25;;;8.43;;
21868;SDS011;11099;41.564;23.296;2022-07-29T03:08:45;9.85;;;8.20;;
21868;SDS011;11099;41.564;23.296;2022-07-29T03:11:13;8.63;;;7.72;;
21868;SDS011;11099;41.564;23.296;2022-07-29T03:13:42;9.23;;;8.50;;
21868;SDS011;11099;41.564;23.296;2022-07-29T03:16:10;9.25;;;8.45;;
21868;SDS011;11099;41.564;23.296;2022-07-29T03:18:38;9.07;;;8.18;;
21868;SDS011;11099;41.564;23.296;2022-07-29T03:21:04;8.85;;;8.13;;
21868;SDS011;11099;41.564;23.296;2022-07-29T03:23:31;8.52;;;7.63;;
21868;SDS011;11099;41.564;23.296;2022-07-29T03:26:02;8.40;;;7.70;;
21868;SDS011;11099;41.564;23.296;2022-07-29T03:28:31;9.30;;;8.48;;
21868;SDS011;11099;41.564;23.296;2022-07-29T03:30:57;8.50;;;7.68;;
21868;SDS011;11099;41.564;23.296;2022-07-29T03:33:22;8.30;;;7.57;;
21868;SDS011;11099;41.564;23.296;2022-07-29T03:35:48;9.05;;;8.15;;
21868;SDS011;11099;41.564;23.296;2022-07-29T03:38:14;10.77;;;8.40;;
21868;SDS011;11099;41.564;23.296;2022-07-29T03:40:48;9.18;;;8.38;;
21868;SDS011;11099;41.564;23.296;2022-07-29T03:43:18;8.80;;;8.07;;
21868;SDS011;11099;41.564;23.296;2022-07-29T03:45:46;11.60;;;9.20;;
21868;SDS011;11099;41.564;23.296;2022-07-29T03:48:15;12.48;;;8.77;;
21868;SDS011;11099;41.564;23.296;2022-07-29T03:50:43;9.25;;;8.55;;
21868;SDS011;11099;41.564;23.296;2022-07-29T03:53:09;9.20;;;8.45;;
21868;SDS011;11099;41.564;23.296;2022-07-29T03:55:37;9.02;;;8.30;;
21868;SDS011;11099;41.564;23.296;2022-07-29T03:58:07;12.57;;;8.85;;
21868;SDS011;11099;41.564;23.296;2022-07-29T04:00:34;11.02;;;8.75;;
21868;SDS011;11099;41.564;23.296;2022-07-29T04:03:02;9.65;;;8.65;;
21868;SDS011;11099;41.564;23.296;2022-07-29T04:05:30;11.10;;;8.38;;
21868;SDS011;11099;41.564;23.296;2022-07-29T04:07:55;8.32;;;7.53;;
21868;SDS011;11099;41.564;23.296;2022-07-29T04:10:21;8.65;;;7.78;;
21868;SDS011;11099;41.564;23.296;2022-07-29T04:12:49;8.60;;;7.55;;
21868;SDS011;11099;41.564;23.296;2022-07-29T04:15:15;8.32;;;7.57;;
21868;SDS011;11099;41.564;23.296;2022-07-29T04:17:45;10.32;;;7.63;;
21868;SDS011;11099;41.564;23.296;2022-07-29T04:20:11;8.52;;;7.72;;
21868;SDS011;11099;41.564;23.296;2022-07-29T04:22:38;8.15;;;7.28;;
21868;SDS011;11099;41.564;23.296;2022-07-29T04:25:05;8.02;;;6.80;;
21868;SDS011;11099;41.564;23.296;2022-07-29T04:27:36;8.38;;;7.43;;
21868;SDS011;11099;41.564;23.296;2022-07-29T04:30:22;8.18;;;7.38;;
21868;SDS011;11099;41.564;23.296;2022-07-29T04:32:48;9.63;;;7.00;;
21868;SDS011;11099;41.564;23.296;2022-07-29T04:37:44;9.73;;;7.10;;
21868;SDS011;11099;41.564;23.296;2022-07-29T04:40:11;11.95;;;7.30;;
21868;SDS011;11099;41.564;23.296;2022-07-29T04:42:37;7.50;;;6.85;;
21868;SDS011;11099;41.564;23.296;2022-07-29T04:45:04;7.63;;;6.90;;
21868;SDS011;11099;41.564;23.296;2022-07-29T04:47:33;9.70;;;7.70;;
21868;SDS011;11099;41.564;23.296;2022-07-29T04:50:08;10.68;;;7.10;;
21868;SDS011;11099;41.564;23.296;2022-07-29T04:52:36;8.80;;;7.57;;
21868;SDS011;11099;41.564;23.296;2022-07-29T04:55:03;7.78;;;7.00;;
21868;SDS011;11099;41.564;23.296;2022-07-29T04:57:31;6.95;;;6.35;;
21868;SDS011;11099;41.564;23.296;2022-07-29T04:59:59;8.05;;;7.35;;
21868;SDS011;11099;41.564;23.296;2022-07-29T05:02:26;8.00;;;7.30;;
21868;SDS011;11099;41.564;23.296;2022-07-29T05:04:52;7.90;;;7.10;;
21868;SDS011;11099;41.564;23.296;2022-07-29T05:07:20;8.70;;;7.65;;
21868;SDS011;11099;41.564;23.296;2022-07-29T05:09:46;8.02;;;7.25;;
21868;SDS011;11099;41.564;23.296;2022-07-29T05:12:11;7.60;;;6.85;;
21868;SDS011;11099;41.564;23.296;2022-07-29T05:14:37;7.57;;;6.88;;
21868;SDS011;11099;41.564;23.296;2022-07-29T05:17:03;7.60;;;7.10;;
21868;SDS011;11099;41.564;23.296;2022-07-29T05:19:28;7.10;;;6.50;;
21868;SDS011;11099;41.564;23.296;2022-07-29T05:21:54;9.40;;;7.03;;
21868;SDS011;11099;41.564;23.296;2022-07-29T05:24:21;7.43;;;6.72;;
21868;SDS011;11099;41.564;23.296;2022-07-29T05:26:51;7.68;;;7.00;;
21868;SDS011;11099;41.564;23.296;2022-07-29T05:29:18;9.68;;;7.25;;
21868;SDS011;11099;41.564;23.296;2022-07-29T05:31:44;7.10;;;6.60;;
21868;SDS011;11099;41.564;23.296;2022-07-29T05:34:11;8.98;;;7.53;;
21868;SDS011;11099;41.564;23.296;2022-07-29T05:36:37;8.23;;;7.43;;
21868;SDS011;11099;41.564;23.296;2022-07-29T05:39:03;11.52;;;8.05;;
21868;SDS011;11099;41.564;23.296;2022-07-29T05:41:31;14.07;;;9.00;;
21868;SDS011;11099;41.564;23.296;2022-07-29T05:43:58;19.73;;;9.95;;
21868;SDS011;11099;41.564;23.296;2022-07-29T05:46:24;18.77;;;9.50;;
21868;SDS011;11099;41.564;23.296;2022-07-29T05:48:50;14.93;;;10.55;;
21868;SDS011;11099;41.564;23.296;2022-07-29T05:51:16;22.70;;;10.65;;
21868;SDS011;11099;41.564;23.296;2022-07-29T05:53:41;21.92;;;11.20;;
21868;SDS011;11099;41.564;23.296;2022-07-29T05:56:07;16.05;;;10.55;;
21868;SDS011;11099;41.564;23.296;2022-07-29T05:58:35;17.50;;;10.73;;
21868;SDS011;11099;41.564;23.296;2022-07-29T06:01:21;20.85;;;10.82;;
21868;SDS011;11099;41.564;23.296;2022-07-29T06:04:01;18.00;;;10.57;;
21868;SDS011;11099;41.564;23.296;2022-07-29T06:06:27;21.58;;;9.93;;
21868;SDS011;11099;41.564;23.296;2022-07-29T06:08:56;21.23;;;10.90;;
21868;SDS011;11099;41.564;23.296;2022-07-29T06:11:26;19.88;;;11.20;;
21868;SDS011;11099;41.564;23.296;2022-07-29T06:13:52;16.02;;;9.60;;
21868;SDS011;11099;41.564;23.296;2022-07-29T06:16:18;17.67;;;10.10;;
21868;SDS011;11099;41.564;23.296;2022-07-29T06:18:44;14.70;;;10.52;;
21868;SDS011;11099;41.564;23.296;2022-07-29T06:21:10;12.18;;;11.05;;
21868;SDS011;11099;41.564;23.296;2022-07-29T06:23:36;14.88;;;9.50;;
21868;SDS011;11099;41.564;23.296;2022-07-29T06:26:03;14.20;;;10.23;;
21868;SDS011;11099;41.564;23.296;2022-07-29T06:28:30;12.75;;;9.95;;
21868;SDS011;11099;41.564;23.296;2022-07-29T06:30:57;13.07;;;9.75;;
21868;SDS011;11099;41.564;23.296;2022-07-29T06:33:22;14.65;;;10.55;;
21868;SDS011;11099;41.564;23.296;2022-07-29T06:35:48;19.17;;;10.35;;
21868;SDS011;11099;41.564;23.296;2022-07-29T06:38:22;18.38;;;10.20;;
21868;SDS011;11099;41.564;23.296;2022-07-29T06:40:53;15.85;;;10.07;;
21868;SDS011;11099;41.564;23.296;2022-07-29T06:43:37;12.68;;;9.57;;
21868;SDS011;11099;41.564;23.296;2022-07-29T06:46:17;12.68;;;10.23;;
21868;SDS011;11099;41.564;23.296;2022-07-29T06:48:44;13.52;;;9.75;;
21868;SDS011;11099;41.564;23.296;2022-07-29T06:51:11;16.60;;;10.15;;
21868;SDS011;11099;41.564;23.296;2022-07-29T06:53:41;12.85;;;9.57;;
21868;SDS011;11099;41.564;23.296;2022-07-29T06:56:09;12.20;;;9.35;;
21868;SDS011;11099;41.564;23.296;2022-07-29T06:58:35;10.00;;;9.07;;
21868;SDS011;11099;41.564;23.296;2022-07-29T07:01:06;13.38;;;9.73;;
21868;SDS011;11099;41.564;23.296;2022-07-29T07:03:41;16.60;;;10.27;;
21868;SDS011;11099;41.564;23.296;2022-07-29T07:06:08;13.90;;;10.60;;
21868;SDS011;11099;41.564;23.296;2022-07-29T07:08:34;12.55;;;9.95;;
21868;SDS011;11099;41.564;23.296;2022-07-29T07:11:00;10.95;;;9.68;;
21868;SDS011;11099;41.564;23.296;2022-07-29T07:13:29;13.25;;;10.43;;
21868;SDS011;11099;41.564;23.296;2022-07-29T07:15:59;13.68;;;10.93;;
21868;SDS011;11099;41.564;23.296;2022-07-29T07:20:58;11.20;;;10.10;;
21868;SDS011;11099;41.564;23.296;2022-07-29T07:23:24;15.43;;;10.45;;
21868;SDS011;11099;41.564;23.296;2022-07-29T07:25:50;10.85;;;9.93;;
21868;SDS011;11099;41.564;23.296;2022-07-29T07:28:16;11.73;;;10.45;;
21868;SDS011;11099;41.564;23.296;2022-07-29T07:30:44;16.08;;;10.07;;
21868;SDS011;11099;41.564;23.296;2022-07-29T07:33:13;12.43;;;11.13;;
21868;SDS011;11099;41.564;23.296;2022-07-29T07:35:55;18.77;;;10.57;;
21868;SDS011;11099;41.564;23.296;2022-07-29T07:38:23;12.65;;;10.60;;
21868;SDS011;11099;41.564;23.296;2022-07-29T07:40:51;16.25;;;11.23;;
21868;SDS011;11099;41.564;23.296;2022-07-29T07:43:17;13.25;;;11.45;;
21868;SDS011;11099;41.564;23.296;2022-07-29T07:45:45;12.27;;;10.60;;
21868;SDS011;11099;41.564;23.296;2022-07-29T07:48:19;13.80;;;11.00;;
21868;SDS011;11099;41.564;23.296;2022-07-29T07:50:45;21.13;;;11.27;;
21868;SDS011;11099;41.564;23.296;2022-07-29T07:53:11;15.60;;;10.77;;
21868;SDS011;11099;41.564;23.296;2022-07-29T07:55:41;13.32;;;11.27;;
21868;SDS011;11099;41.564;23.296;2022-07-29T07:58:08;11.63;;;10.50;;
21868;SDS011;11099;41.564;23.296;2022-07-29T08:00:34;15.80;;;11.25;;
21868;SDS011;11099;41.564;23.296;2022-07-29T08:03:03;15.82;;;11.50;;
21868;SDS011;11099;41.564;23.296;2022-07-29T08:05:30;15.68;;;12.85;;
21868;SDS011;11099;41.564;23.296;2022-07-29T08:07:57;16.55;;;13.30;;
21868;SDS011;11099;41.564;23.296;2022-07-29T08:10:23;19.75;;;12.80;;
21868;SDS011;11099;41.564;23.296;2022-07-29T08:13:07;18.52;;;12.68;;
21868;SDS011;11099;41.564;23.296;2022-07-29T08:18:01;18.83;;;12.63;;
21868;SDS011;11099;41.564;23.296;2022-07-29T08:20:28;25.38;;;12.75;;
21868;SDS011;11099;41.564;23.296;2022-07-29T08:22:54;23.95;;;12.85;;
21868;SDS011;11099;41.564;23.296;2022-07-29T08:25:27;18.77;;;12.10;;
21868;SDS011;11099;41.564;23.296;2022-07-29T08:27:53;14.60;;;11.68;;
21868;SDS011;11099;41.564;23.296;2022-07-29T08:30:19;16.75;;;12.25;;
21868;SDS011;11099;41.564;23.296;2022-07-29T08:32:47;18.95;;;12.90;;
21868;SDS011;11099;41.564;23.296;2022-07-29T08:35:15;20.15;;;12.15;;
21868;SDS011;11099;41.564;23.296;2022-07-29T08:37:41;22.33;;;13.32;;
21868;SDS011;11099;41.564;23.296;2022-07-29T08:40:07;14.88;;;12.02;;
21868;SDS011;11099;41.564;23.296;2022-07-29T08:42:36;16.60;;;12.10;;
21868;SDS011;11099;41.564;23.296;2022-07-29T08:45:03;14.65;;;12.10;;
21868;SDS011;11099;41.564;23.296;2022-07-29T08:47:30;14.43;;;11.85;;
21868;SDS011;11099;41.564;23.296;2022-07-29T08:49:58;18.50;;;12.57;;
21868;SDS011;11099;41.564;23.296;2022-07-29T08:52:26;23.33;;;12.70;;
21868;SDS011;11099;41.564;23.296;2022-07-29T08:54:54;19.65;;;11.80;;
21868;SDS011;11099;41.564;23.296;2022-07-29T08:57:21;12.55;;;11.27;;
21868;SDS011;11099;41.564;23.296;2022-07-29T08:59:50;20.27;;;11.60;;
21868;SDS011;11099;41.564;23.296;2022-07-29T09:02:21;18.40;;;11.80;;
21868;SDS011;11099;41.564;23.296;2022-07-29T09:04:48;16.65;;;11.70;;
21868;SDS011;11099;41.564;23.296;2022-07-29T09:07:18;13.73;;;11.98;;
21868;SDS011;11099;41.564;23.296;2022-07-29T09:09:58;16.92;;;12.25;;
21868;SDS011;11099;41.564;23.296;2022-07-29T09:12:28;17.42;;;11.80;;
21868;SDS011;11099;41.564;23.296;2022-07-29T09:15:00;13.95;;;12.38;;
21868;SDS011;11099;41.564;23.296;2022-07-29T09:56:52;11.25;;;9.10;;
21868;SDS011;11099;41.564;23.296;2022-07-29T10:15:53;11.98;;;7.93;;
21868;SDS011;11099;41.564;23.296;2022-07-29T10:18:19;8.20;;;7.55;;
21868;SDS011;11099;41.564;23.296;2022-07-29T10:47:27;8.10;;;7.32;;
21868;SDS011;11099;41.564;23.296;2022-07-29T10:49:59;8.05;;;7.32;;
21868;SDS011;11099;41.564;23.296;2022-07-29T10:58:19;6.35;;;5.95;;
21868;SDS011;11099;41.564;23.296;2022-07-29T11:01:27;7.22;;;6.55;;
21868;SDS011;11099;41.564;23.296;2022-07-29T11:08:26;6.85;;;6.25;;
21868;SDS011;11099;41.564;23.296;2022-07-29T11:10:38;6.90;;;6.20;;
21868;SDS011;11099;41.564;23.296;2022-07-29T11:13:04;6.80;;;6.22;;
21868;SDS011;11099;41.564;23.296;2022-07-29T11:15:32;12.90;;;6.20;;
21868;SDS011;11099;41.564;23.296;2022-07-29T11:18:19;6.47;;;5.85;;
21868;SDS011;11099;41.564;23.296;2022-07-29T11:20:46;6.68;;;6.15;;
21868;SDS011;11099;41.564;23.296;2022-07-29T11:23:31;7.72;;;6.78;;
21868;SDS011;11099;41.564;23.296;2022-07-29T11:34:15;7.60;;;7.10;;
21868;SDS011;11099;41.564;23.296;2022-07-29T11:39:30;6.93;;;6.32;;
21868;SDS011;11099;41.564;23.296;2022-07-29T11:44:56;6.93;;;6.32;;
21868;SDS011;11099;41.564;23.296;2022-07-29T11:47:22;7.15;;;6.30;;
21868;SDS011;11099;41.564;23.296;2022-07-29T11:49:54;7.10;;;6.57;;
21868;SDS011;11099;41.564;23.296;2022-07-29T11:52:22;7.18;;;6.57;;
21868;SDS011;11099;41.564;23.296;2022-07-29T11:54:50;8.55;;;6.40;;
21868;SDS011;11099;41.564;23.296;2022-07-29T11:57:17;7.47;;;6.53;;
21868;SDS011;11099;41.564;23.296;2022-07-29T11:59:44;6.93;;;6.27;;
21868;SDS011;11099;41.564;23.296;2022-07-29T12:02:11;7.47;;;6.97;;
21868;SDS011;11099;41.564;23.296;2022-07-29T12:10:30;7.30;;;6.80;;
21868;SDS011;11099;41.564;23.296;2022-07-29T12:12:58;7.63;;;6.88;;
21868;SDS011;11099;41.564;23.296;2022-07-29T12:15:26;7.30;;;6.80;;
21868;SDS011;11099;41.564;23.296;2022-07-29T12:17:54;6.90;;;6.40;;
21868;SDS011;11099;41.564;23.296;2022-07-29T12:20:23;7.40;;;6.80;;
21868;SDS011;11099;41.564;23.296;2022-07-29T12:22:53;6.90;;;6.40;;
21868;SDS011;11099;41.564;23.296;2022-07-29T12:25:20;9.35;;;6.75;;
21868;SDS011;11099;41.564;23.296;2022-07-29T12:27:57;7.97;;;7.38;;
21868;SDS011;11099;41.564;23.296;2022-07-29T12:30:33;8.73;;;7.30;;
21868;SDS011;11099;41.564;23.296;2022-07-29T12:33:19;7.63;;;6.57;;
21868;SDS011;11099;41.564;23.296;2022-07-29T12:35:57;7.30;;;6.70;;
21868;SDS011;11099;41.564;23.296;2022-07-29T12:41:20;7.90;;;7.20;;
21868;SDS011;11099;41.564;23.296;2022-07-29T12:43:55;7.60;;;6.95;;
21868;SDS011;11099;41.564;23.296;2022-07-29T12:46:20;7.68;;;6.97;;
21868;SDS011;11099;41.564;23.296;2022-07-29T12:54:52;7.20;;;6.70;;
21868;SDS011;11099;41.564;23.296;2022-07-29T12:57:17;7.22;;;6.72;;
21868;SDS011;11099;41.564;23.296;2022-07-29T12:59:43;7.07;;;6.57;;
21868;SDS011;11099;41.564;23.296;2022-07-29T13:02:20;7.47;;;6.85;;
21868;SDS011;11099;41.564;23.296;2022-07-29T13:04:56;7.32;;;6.75;;
21868;SDS011;11099;41.564;23.296;2022-07-29T13:07:23;7.55;;;6.95;;
21868;SDS011;11099;41.564;23.296;2022-07-29T13:09:53;10.00;;;6.65;;
21868;SDS011;11099;41.564;23.296;2022-07-29T13:12:19;7.43;;;6.70;;
21868;SDS011;11099;41.564;23.296;2022-07-29T13:20:10;7.53;;;6.93;;
21868;SDS011;11099;41.564;23.296;2022-07-29T13:29:17;8.25;;;7.13;;
21868;SDS011;11099;41.564;23.296;2022-07-29T13:31:43;7.68;;;6.80;;
21868;SDS011;11099;41.564;23.296;2022-07-29T13:40:14;7.93;;;7.18;;
21868;SDS011;11099;41.564;23.296;2022-07-29T13:42:40;7.68;;;7.07;;
21868;SDS011;11099;41.564;23.296;2022-07-29T13:45:06;8.18;;;7.40;;
21868;SDS011;11099;41.564;23.296;2022-07-29T13:47:33;7.80;;;7.10;;
21868;SDS011;11099;41.564;23.296;2022-07-29T13:50:02;7.60;;;7.00;;
21868;SDS011;11099;41.564;23.296;2022-07-29T13:52:29;7.93;;;7.20;;
21868;SDS011;11099;41.564;23.296;2022-07-29T13:54:55;7.65;;;7.05;;
21868;SDS011;11099;41.564;23.296;2022-07-29T13:57:24;7.50;;;7.00;;
21868;SDS011;11099;41.564;23.296;2022-07-29T13:59:50;7.82;;;7.22;;
21868;SDS011;11099;41.564;23.296;2022-07-29T14:02:16;7.65;;;7.07;;
21868;SDS011;11099;41.564;23.296;2022-07-29T14:04:41;7.10;;;6.60;;
21868;SDS011;11099;41.564;23.296;2022-07-29T14:07:07;8.68;;;7.03;;
21868;SDS011;11099;41.564;23.296;2022-07-29T14:09:33;7.65;;;7.15;;
21868;SDS011;11099;41.564;23.296;2022-07-29T14:11:59;8.05;;;7.32;;
21868;SDS011;11099;41.564;23.296;2022-07-29T14:14:26;8.43;;;7.68;;
21868;SDS011;11099;41.564;23.296;2022-07-29T14:16:51;7.90;;;7.25;;
21868;SDS011;11099;41.564;23.296;2022-07-29T14:19:17;8.50;;;7.63;;
21868;SDS011;11099;41.564;23.296;2022-07-29T14:21:42;7.40;;;6.90;;
21868;SDS011;11099;41.564;23.296;2022-07-29T14:24:09;8.13;;;7.30;;
21868;SDS011;11099;41.564;23.296;2022-07-29T14:26:34;8.80;;;8.00;;
21868;SDS011;11099;41.564;23.296;2022-07-29T14:29:00;8.20;;;7.60;;
21868;SDS011;11099;41.564;23.296;2022-07-29T14:31:25;8.15;;;7.53;;
21868;SDS011;11099;41.564;23.296;2022-07-29T14:33:51;7.85;;;7.15;;
21868;SDS011;11099;41.564;23.296;2022-07-29T14:36:16;8.32;;;7.68;;
21868;SDS011;11099;41.564;23.296;2022-07-29T14:38:42;8.05;;;7.25;;
21868;SDS011;11099;41.564;23.296;2022-07-29T15:18:35;9.38;;;8.55;;
21868;SDS011;11099;41.564;23.296;2022-07-29T15:24:10;9.50;;;8.60;;
21868;SDS011;11099;41.564;23.296;2022-07-29T15:26:38;8.85;;;8.18;;
21868;SDS011;11099;41.564;23.296;2022-07-29T15:29:04;9.27;;;8.40;;
21868;SDS011;11099;41.564;23.296;2022-07-29T15:53:16;8.67;;;7.97;;
21868;SDS011;11099;41.564;23.296;2022-07-29T16:42:07;9.07;;;8.38;;
21868;SDS011;11099;41.564;23.296;2022-07-29T16:44:34;9.18;;;8.43;;
21868;SDS011;11099;41.564;23.296;2022-07-29T16:50:10;9.55;;;8.65;;
21868;SDS011;11099;41.564;23.296;2022-07-29T17:18:27;10.48;;;9.60;;
21868;SDS011;11099;41.564;23.296;2022-07-29T17:33:22;10.63;;;9.63;;
21868;SDS011;11099;41.564;23.296;2022-07-29T17:35:54;10.18;;;9.30;;
21868;SDS011;11099;41.564;23.296;2022-07-29T17:38:39;9.75;;;8.88;;
21868;SDS011;11099;41.564;23.296;2022-07-29T17:41:06;9.70;;;8.63;;
21868;SDS011;11099;41.564;23.296;2022-07-29T17:43:36;8.65;;;7.75;;
21868;SDS011;11099;41.564;23.296;2022-07-29T17:46:06;9.23;;;8.27;;
21868;SDS011;11099;41.564;23.296;2022-07-29T17:48:38;8.30;;;7.60;;
21868;SDS011;11099;41.564;23.296;2022-07-29T17:51:06;10.60;;;8.43;;
21868;SDS011;11099;41.564;23.296;2022-07-29T17:53:35;9.18;;;8.20;;
21868;SDS011;11099;41.564;23.296;2022-07-29T17:56:03;9.00;;;8.30;;
21868;SDS011;11099;41.564;23.296;2022-07-29T17:58:29;9.63;;;8.50;;
21868;SDS011;11099;41.564;23.296;2022-07-29T18:00:57;9.60;;;8.80;;
21868;SDS011;11099;41.564;23.296;2022-07-29T18:03:24;10.00;;;8.82;;
21868;SDS011;11099;41.564;23.296;2022-07-29T18:05:50;9.50;;;8.57;;
21868;SDS011;11099;41.564;23.296;2022-07-29T18:08:16;11.25;;;8.70;;
21868;SDS011;11099;41.564;23.296;2022-07-29T18:10:42;9.23;;;8.40;;
21868;SDS011;11099;41.564;23.296;2022-07-29T18:13:09;9.05;;;8.13;;
21868;SDS011;11099;41.564;23.296;2022-07-29T18:15:37;9.50;;;8.65;;
21868;SDS011;11099;41.564;23.296;2022-07-29T18:18:03;11.63;;;8.60;;
21868;SDS011;11099;41.564;23.296;2022-07-29T18:20:28;9.50;;;8.68;;
21868;SDS011;11099;41.564;23.296;2022-07-29T18:22:55;9.00;;;8.20;;
21868;SDS011;11099;41.564;23.296;2022-07-29T18:25:21;9.55;;;8.73;;
21868;SDS011;11099;41.564;23.296;2022-07-29T18:27:47;8.82;;;8.10;;
21868;SDS011;11099;41.564;23.296;2022-07-29T18:30:13;10.23;;;8.85;;
21868;SDS011;11099;41.564;23.296;2022-07-29T18:32:39;9.52;;;8.73;;
21868;SDS011;11099;41.564;23.296;2022-07-29T18:35:05;8.82;;;8.23;;
21868;SDS011;11099;41.564;23.296;2022-07-29T18:37:31;9.70;;;8.82;;
21868;SDS011;11099;41.564;23.296;2022-07-29T18:39:58;9.90;;;8.27;;
21868;SDS011;11099;41.564;23.296;2022-07-29T18:42:24;9.43;;;8.52;;
21868;SDS011;11099;41.564;23.296;2022-07-29T18:44:49;9.20;;;8.50;;
21868;SDS011;11099;41.564;23.296;2022-07-29T18:47:15;10.40;;;8.77;;
21868;SDS011;11099;41.564;23.296;2022-07-29T18:49:40;10.70;;;9.55;;
21868;SDS011;11099;41.564;23.296;2022-07-29T18:52:06;9.23;;;8.35;;
21868;SDS011;11099;41.564;23.296;2022-07-29T18:54:32;8.82;;;8.07;;
21868;SDS011;11099;41.564;23.296;2022-07-29T18:56:57;11.10;;;8.52;;
21868;SDS011;11099;41.564;23.296;2022-07-29T18:59:24;9.43;;;8.40;;
21868;SDS011;11099;41.564;23.296;2022-07-29T19:01:49;9.82;;;8.77;;
21868;SDS011;11099;41.564;23.296;2022-07-29T19:06:53;14.65;;;11.20;;
21868;SDS011;11099;41.564;23.296;2022-07-29T19:09:45;15.55;;;11.88;;
21868;SDS011;11099;41.564;23.296;2022-07-29T19:12:27;11.73;;;9.90;;
21868;SDS011;11099;41.564;23.296;2022-07-29T19:14:56;11.63;;;9.65;;
21868;SDS011;11099;41.564;23.296;2022-07-29T19:17:22;10.20;;;9.15;;
21868;SDS011;11099;41.564;23.296;2022-07-29T19:19:48;10.15;;;9.32;;
21868;SDS011;11099;41.564;23.296;2022-07-29T19:22:20;10.73;;;9.32;;
21868;SDS011;11099;41.564;23.296;2022-07-29T19:24:47;9.77;;;9.02;;
21868;SDS011;11099;41.564;23.296;2022-07-29T19:27:14;11.40;;;10.40;;
21868;SDS011;11099;41.564;23.296;2022-07-29T19:29:41;11.02;;;10.02;;
21868;SDS011;11099;41.564;23.296;2022-07-29T19:32:07;10.25;;;9.45;;
21868;SDS011;11099;41.564;23.296;2022-07-29T19:34:33;10.45;;;9.55;;
21868;SDS011;11099;41.564;23.296;2022-07-29T19:36:58;10.00;;;9.18;;
21868;SDS011;11099;41.564;23.296;2022-07-29T19:39:24;10.27;;;9.13;;
21868;SDS011;11099;41.564;23.296;2022-07-29T19:41:50;11.02;;;10.00;;
21868;SDS011;11099;41.564;23.296;2022-07-29T19:44:16;10.30;;;9.50;;
21868;SDS011;11099;41.564;23.296;2022-07-29T19:46:41;10.55;;;9.60;;
21868;SDS011;11099;41.564;23.296;2022-07-29T19:49:07;9.95;;;9.25;;
21868;SDS011;11099;41.564;23.296;2022-07-29T19:51:34;10.68;;;9.55;;